createdAt,value
2022-12-28T00:03:54.207Z,28.03
2022-12-28T00:09:01.436Z,28.24
2022-12-28T00:14:08.781Z,28.39
2022-12-28T00:19:15.868Z,28.45
2022-12-28T00:24:23.061Z,28.60
2022-12-28T00:29:30.330Z,28.67
2022-12-28T00:34:37.445Z,28.78
2022-12-28T00:39:44.653Z,28.93
2022-12-28T00:44:51.909Z,29.08
2022-12-28T00:49:59.081Z,29.20
2022-12-28T00:55:06.344Z,29.31
2022-12-28T01:00:13.636Z,29.44
2022-12-28T01:05:20.809Z,29.53
2022-12-28T01:10:27.985Z,29.71
2022-12-28T01:15:35.214Z,29.73
2022-12-28T01:20:42.434Z,29.87
2022-12-28T01:25:49.615Z,29.94
2022-12-28T01:30:56.843Z,30.00
2022-12-28T01:36:04.009Z,30.06
2022-12-28T01:41:11.330Z,30.20
2022-12-28T01:46:18.585Z,30.28
2022-12-28T01:51:25.791Z,30.38
2022-12-28T01:56:33.013Z,30.43
2022-12-28T02:01:40.372Z,30.60
2022-12-28T02:06:47.463Z,30.64
2022-12-28T02:11:54.750Z,30.71
2022-12-28T02:17:02.059Z,30.79
2022-12-28T02:22:09.172Z,30.87
2022-12-28T02:27:16.400Z,30.97
2022-12-28T02:32:23.648Z,31.00
2022-12-28T02:37:30.883Z,31.03
2022-12-28T02:42:38.104Z,31.07
2022-12-28T02:47:45.325Z,31.09
2022-12-28T02:52:52.494Z,31.11
2022-12-28T02:57:59.740Z,31.18
2022-12-28T03:03:07.142Z,31.23
2022-12-28T03:08:14.205Z,31.30
2022-12-28T03:13:21.511Z,31.35
2022-12-28T03:18:28.797Z,31.40
2022-12-28T03:23:35.960Z,31.46
2022-12-28T03:28:43.126Z,31.48
2022-12-28T03:33:50.391Z,31.50
2022-12-28T03:38:57.555Z,31.53
2022-12-28T03:44:04.765Z,31.58
2022-12-28T03:49:11.944Z,31.62
2022-12-28T03:54:19.167Z,31.65
2022-12-28T03:59:26.427Z,31.67
2022-12-28T04:04:33.693Z,31.70
2022-12-28T04:09:40.888Z,31.74
2022-12-28T04:14:48.125Z,31.78
2022-12-28T04:19:55.378Z,31.81
2022-12-28T04:25:02.613Z,31.81
2022-12-28T04:30:09.816Z,31.83
2022-12-28T04:35:17.067Z,31.87
2022-12-28T04:40:24.270Z,31.88
2022-12-28T04:45:31.496Z,31.89
2022-12-28T04:50:38.789Z,31.91
2022-12-28T04:55:46.026Z,31.95
2022-12-28T05:00:53.296Z,31.98
2022-12-28T05:06:00.445Z,32.02
2022-12-28T05:11:07.673Z,32.06
2022-12-28T05:16:14.926Z,32.08
2022-12-28T05:21:22.180Z,32.09
2022-12-28T05:26:29.509Z,32.14
2022-12-28T05:31:36.652Z,32.15
2022-12-28T05:36:43.774Z,32.18
2022-12-28T05:41:50.956Z,32.17
2022-12-28T05:46:58.183Z,32.21
2022-12-28T05:52:05.354Z,32.21
2022-12-28T05:57:12.595Z,32.25
2022-12-28T06:02:24.573Z,32.27
2022-12-28T06:07:27.038Z,32.27
2022-12-28T06:12:34.203Z,32.31
2022-12-28T06:17:41.390Z,32.28
2022-12-28T06:22:48.624Z,32.29
2022-12-28T06:27:55.834Z,32.31
2022-12-28T06:33:02.995Z,32.31
2022-12-28T06:38:10.237Z,32.33
2022-12-28T06:43:17.428Z,32.33
2022-12-28T06:48:24.646Z,32.35
2022-12-28T06:53:31.850Z,32.35
2022-12-28T06:58:39.041Z,32.38
2022-12-28T07:03:46.284Z,32.37
2022-12-28T07:08:53.466Z,32.40
2022-12-28T07:14:00.844Z,32.34
2022-12-28T07:19:08.060Z,32.30
2022-12-28T07:24:15.233Z,32.32
2022-12-28T07:29:22.357Z,32.29
2022-12-28T07:34:29.585Z,32.32
2022-12-28T07:39:36.831Z,32.31
2022-12-28T07:44:48.788Z,32.33
2022-12-28T07:49:51.229Z,32.37
2022-12-28T07:54:58.402Z,32.35
2022-12-28T08:00:05.549Z,32.42
2022-12-28T08:05:12.805Z,32.44
2022-12-28T08:10:20.080Z,32.43
2022-12-28T08:15:27.288Z,32.43
2022-12-28T08:20:34.411Z,32.49
2022-12-28T08:25:41.680Z,32.54
2022-12-28T08:30:48.865Z,32.51
2022-12-28T08:35:56.093Z,32.51
2022-12-28T08:41:03.457Z,32.50
2022-12-28T08:46:10.842Z,32.48
2022-12-28T08:51:17.854Z,32.48
2022-12-28T08:56:25.075Z,32.46
2022-12-28T09:01:37.304Z,32.39
2022-12-28T09:06:39.509Z,32.36
2022-12-28T09:11:46.776Z,32.38
2022-12-28T09:16:54.101Z,32.39
2022-12-28T09:22:01.261Z,32.39
2022-12-28T09:27:08.506Z,32.45
2022-12-28T09:32:15.709Z,32.48
2022-12-28T09:37:22.950Z,32.47
2022-12-28T09:42:30.210Z,32.35
2022-12-28T09:47:37.410Z,32.26
2022-12-28T09:52:49.489Z,32.07
2022-12-28T09:57:51.831Z,31.99
2022-12-28T10:02:59.065Z,31.92
2022-12-28T10:08:06.261Z,31.60
2022-12-28T10:13:45.551Z,31.84
2022-12-28T10:18:20.714Z,31.46
2022-12-28T10:23:27.871Z,31.31
2022-12-28T10:28:35.081Z,31.26
2022-12-28T10:33:42.284Z,31.27
2022-12-28T10:38:49.547Z,31.26
2022-12-28T10:44:29.429Z,31.20
2022-12-28T10:49:03.953Z,31.23
2022-12-28T10:54:11.158Z,31.26
2022-12-28T10:59:18.393Z,31.23
2022-12-28T11:04:25.590Z,31.25
2022-12-28T11:09:32.782Z,31.24
2022-12-28T11:14:40.006Z,31.21
2022-12-28T11:19:47.192Z,31.14
2022-12-28T11:24:54.458Z,31.14
2022-12-28T11:30:01.795Z,31.14
2022-12-28T11:35:08.908Z,31.16
2022-12-28T11:40:16.217Z,31.17
2022-12-28T11:45:23.413Z,31.17
2022-12-28T11:50:30.595Z,31.05
2022-12-28T11:55:37.812Z,30.97
2022-12-28T12:00:45.014Z,30.86
2022-12-28T12:05:52.196Z,30.85
2022-12-28T12:10:59.401Z,30.78
2022-12-28T12:16:06.633Z,30.86
2022-12-28T12:21:16.214Z,30.87
2022-12-28T12:26:21.073Z,30.97
2022-12-28T12:31:28.272Z,31.03
2022-12-28T12:36:35.460Z,31.02
2022-12-28T12:41:42.683Z,31.06
2022-12-28T12:46:49.906Z,31.06
2022-12-28T12:51:57.099Z,31.07
2022-12-28T12:57:04.346Z,31.08
2022-12-28T13:02:11.874Z,31.15
2022-12-28T13:07:18.778Z,31.18
2022-12-28T13:12:26.043Z,31.11
2022-12-28T13:17:33.224Z,30.94
2022-12-28T13:22:40.390Z,30.80
2022-12-28T13:27:47.551Z,30.70
2022-12-28T13:32:55.010Z,30.73
2022-12-28T13:38:02.232Z,30.78
2022-12-28T13:43:09.434Z,30.75
2022-12-28T13:48:16.628Z,30.81
2022-12-28T13:53:23.822Z,30.92
2022-12-28T13:58:31.017Z,31.00
2022-12-28T14:03:41.384Z,31.06
2022-12-28T14:08:45.460Z,31.10
2022-12-28T14:13:52.647Z,31.08
2022-12-28T14:18:59.889Z,31.11
2022-12-28T14:24:07.091Z,31.10
2022-12-28T14:29:14.252Z,31.16
2022-12-28T14:34:21.491Z,31.21
2022-12-28T14:39:28.658Z,31.33
2022-12-28T14:44:35.876Z,31.32
2022-12-28T14:49:43.119Z,31.25
2022-12-28T14:54:50.289Z,31.15
2022-12-28T14:59:57.505Z,31.10
2022-12-28T15:05:04.712Z,31.02
2022-12-28T15:10:11.917Z,31.03
2022-12-28T15:15:19.127Z,31.05
2022-12-28T15:20:26.389Z,31.07
2022-12-28T15:25:33.532Z,31.14
2022-12-28T15:30:40.731Z,31.21
2022-12-28T15:35:47.976Z,31.29
2022-12-28T15:40:55.199Z,31.31
2022-12-28T15:46:02.445Z,31.31
2022-12-28T15:51:09.763Z,31.29
2022-12-28T15:56:16.909Z,31.32
2022-12-28T16:01:24.233Z,31.34
2022-12-28T16:06:31.324Z,31.41
2022-12-28T16:11:38.505Z,31.45
2022-12-28T16:16:45.770Z,31.32
2022-12-28T16:21:53.001Z,31.23
2022-12-28T16:27:00.146Z,31.09
2022-12-28T16:32:07.476Z,30.98
2022-12-28T16:37:14.592Z,31.04
2022-12-28T16:42:21.829Z,31.11
2022-12-28T16:47:28.999Z,31.17
2022-12-28T16:52:36.227Z,31.23
2022-12-28T16:57:43.412Z,31.30
2022-12-28T17:02:50.715Z,31.37
2022-12-28T17:07:57.853Z,31.39
2022-12-28T17:13:05.001Z,31.40
2022-12-28T17:18:12.240Z,31.41
2022-12-28T17:23:19.472Z,31.45
2022-12-28T17:28:26.713Z,31.51
2022-12-28T17:33:38.911Z,31.60
2022-12-28T17:38:41.204Z,31.64
2022-12-28T17:43:48.406Z,31.49
2022-12-28T17:48:55.605Z,31.40
2022-12-28T17:54:02.795Z,31.38
2022-12-28T17:59:10.186Z,31.36
2022-12-28T18:04:17.403Z,31.41
2022-12-28T18:09:27.973Z,31.46
2022-12-28T18:14:31.832Z,31.35
2022-12-28T18:19:38.985Z,31.47
2022-12-28T18:24:46.164Z,31.52
2022-12-28T18:29:53.350Z,31.56
2022-12-28T18:35:00.517Z,31.54
2022-12-28T18:40:07.744Z,31.58
2022-12-28T18:45:15.221Z,31.62
2022-12-28T18:50:22.630Z,31.64
2022-12-28T18:55:29.890Z,31.63
2022-12-28T19:00:37.367Z,31.57
2022-12-28T19:05:44.956Z,31.42
2022-12-28T19:10:52.530Z,31.39
2022-12-28T19:15:59.925Z,31.42
2022-12-28T19:21:07.054Z,31.32
2022-12-28T19:26:14.319Z,31.85
2022-12-28T19:31:21.570Z,32.02
2022-12-28T19:36:28.720Z,31.71
2022-12-28T19:41:35.932Z,31.70
2022-12-28T19:46:43.181Z,31.53
2022-12-28T19:51:50.336Z,31.55
2022-12-28T19:56:57.543Z,31.45
2022-12-28T20:02:04.799Z,31.29
2022-12-28T20:07:12.236Z,31.28
2022-12-28T20:12:19.900Z,31.19
2022-12-28T20:17:27.387Z,31.12
2022-12-28T20:22:34.687Z,30.99
2022-12-28T20:27:41.899Z,30.81
2022-12-28T20:32:49.049Z,30.69
2022-12-28T20:37:56.316Z,30.53
2022-12-28T20:43:03.515Z,30.47
2022-12-28T20:48:10.756Z,30.46
2022-12-28T20:53:18.312Z,30.43
2022-12-28T20:58:25.642Z,30.39
2022-12-28T21:03:33.239Z,30.24
2022-12-28T21:08:40.535Z,30.43
2022-12-28T21:13:47.785Z,30.24
2022-12-28T21:18:55.166Z,30.29
2022-12-28T21:24:02.471Z,30.21
2022-12-28T21:29:09.996Z,30.13
2022-12-28T21:34:17.583Z,30.23
2022-12-28T21:39:24.952Z,30.12
2022-12-28T21:44:32.179Z,30.44
2022-12-28T21:49:39.316Z,30.32
2022-12-28T21:54:46.522Z,30.19
2022-12-28T21:59:53.746Z,29.88
2022-12-28T22:05:03.232Z,29.85
2022-12-28T22:10:08.118Z,29.90
2022-12-28T22:15:15.309Z,29.89
2022-12-28T22:20:22.543Z,29.84
2022-12-28T22:25:29.742Z,29.76
2022-12-28T22:30:37.002Z,29.78
2022-12-28T22:35:44.142Z,29.83
2022-12-28T22:40:51.325Z,29.82
2022-12-28T22:45:58.619Z,29.77
2022-12-28T22:51:05.780Z,29.83
2022-12-28T22:56:13.022Z,29.77
2022-12-28T23:01:20.362Z,29.82
2022-12-28T23:06:27.472Z,29.86
2022-12-28T23:11:34.713Z,29.77
2022-12-28T23:16:42.055Z,29.66
2022-12-28T23:21:49.202Z,29.45
2022-12-28T23:26:56.433Z,29.38
2022-12-28T23:32:03.641Z,29.30
2022-12-28T23:37:10.837Z,29.33
2022-12-28T23:42:18.031Z,29.38
2022-12-28T23:47:25.297Z,29.41
2022-12-28T23:52:32.526Z,29.57
2022-12-28T23:57:39.751Z,29.32
